createdAt,value
2019-03-22T06:10:45.225Z,69.30
2019-03-22T06:13:18.373Z,67.60
2019-03-22T06:15:51.350Z,67.70
2019-03-22T06:18:24.275Z,66.50
2019-03-22T06:20:57.325Z,67.00
2019-03-22T06:23:30.253Z,65.30
2019-03-22T06:26:03.520Z,65.10
2019-03-22T06:28:36.953Z,69.50
2019-03-22T06:31:10.308Z,68.90
2019-03-22T06:33:43.244Z,68.00
2019-03-22T06:36:16.445Z,68.50
2019-03-22T06:38:49.385Z,70.00
2019-03-22T06:41:22.424Z,70.00
2019-03-22T06:43:55.293Z,71.50
2019-03-22T06:46:28.124Z,72.20
2019-03-22T06:49:00.968Z,72.80
2019-03-22T06:51:34.024Z,73.20
2019-03-22T06:54:06.966Z,72.60
2019-03-22T06:56:40.304Z,72.60
2019-03-22T06:59:13.466Z,72.10
2019-03-22T07:01:46.325Z,72.10
2019-03-22T07:04:19.250Z,72.10
2019-03-22T07:06:52.494Z,71.60
2019-03-22T07:09:25.372Z,73.00
2019-03-22T07:11:58.365Z,74.70
2019-03-22T07:14:31.144Z,74.20
2019-03-22T07:17:04.005Z,75.30
2019-03-22T07:19:36.944Z,72.40
2019-03-22T07:22:09.965Z,72.50
2019-03-22T07:24:43.184Z,72.50
2019-03-22T07:27:16.433Z,73.90
2019-03-22T07:29:49.828Z,74.10
2019-03-22T07:32:22.790Z,74.30
2019-03-22T07:34:55.753Z,75.50
2019-03-22T07:37:29.045Z,75.30
2019-03-22T07:40:02.004Z,76.30
2019-03-22T07:42:34.904Z,75.80
2019-03-22T07:45:07.845Z,75.80
2019-03-22T07:47:41.204Z,76.00
2019-03-22T07:50:13.985Z,75.20
2019-03-22T07:52:46.988Z,75.30
2019-03-22T07:55:19.784Z,74.10
2019-03-22T07:57:52.925Z,72.90
2019-03-22T08:00:30.790Z,74.20
2019-03-22T08:03:00.561Z,73.40
2019-03-22T08:05:33.410Z,73.20
2019-03-22T08:08:06.185Z,73.60
2019-03-22T08:10:39.025Z,72.80
2019-03-22T08:13:11.894Z,70.90
2019-03-22T08:15:44.804Z,72.90
2019-03-22T08:18:18.147Z,71.20
2019-03-22T08:20:51.344Z,72.60
2019-03-22T08:23:24.109Z,73.30
2019-03-22T08:25:57.221Z,72.50
2019-03-22T08:28:30.125Z,71.20
2019-03-22T08:31:05.461Z,66.90
2019-03-22T08:33:37.826Z,63.30
2019-03-22T08:36:10.588Z,65.30
2019-03-22T08:38:43.746Z,59.90
2019-03-22T08:41:17.096Z,55.10
2019-03-22T08:43:50.446Z,56.40
2019-03-22T08:46:23.511Z,53.00
2019-03-22T08:48:56.457Z,52.90
2019-03-22T08:51:30.048Z,52.50
2019-03-22T08:54:03.425Z,55.20
2019-03-22T08:56:36.505Z,53.50
2019-03-22T08:59:09.418Z,54.30
2019-03-22T09:01:42.932Z,53.40
2019-03-22T09:04:16.079Z,52.30
2019-03-22T09:06:48.993Z,56.30
2019-03-22T09:09:22.024Z,50.20
2019-03-22T09:11:55.002Z,50.30
2019-03-22T09:14:28.029Z,49.90
2019-03-22T09:17:01.104Z,50.10
2019-03-22T09:19:33.981Z,50.60
2019-03-22T09:22:07.130Z,48.60
2019-03-22T09:24:40.270Z,49.70
2019-03-22T09:27:13.487Z,49.90
2019-03-22T09:29:47.503Z,47.60
2019-03-22T09:32:20.752Z,49.00
2019-03-22T09:34:53.729Z,48.60
2019-03-22T09:37:27.065Z,52.10
2019-03-22T09:39:59.927Z,52.20
2019-03-22T09:42:32.785Z,49.30
2019-03-22T09:45:05.919Z,46.40
2019-03-22T09:47:39.263Z,46.70
2019-03-22T09:50:12.365Z,49.30
2019-03-22T09:52:45.432Z,48.20
2019-03-22T09:55:18.456Z,48.20
2019-03-22T09:57:51.358Z,47.60
2019-03-22T10:00:24.156Z,46.30
2019-03-22T10:02:57.079Z,48.20
2019-03-22T10:05:30.212Z,49.50
2019-03-22T10:08:03.232Z,50.30
2019-03-22T10:10:36.124Z,45.00
2019-03-22T10:13:09.533Z,46.10
2019-03-22T10:15:42.531Z,48.60
2019-03-22T10:18:15.544Z,44.90
2019-03-22T10:20:48.565Z,46.10
2019-03-22T10:23:22.560Z,42.20
2019-03-22T10:25:56.117Z,42.50
2019-03-22T10:28:29.509Z,40.30
2019-03-22T10:31:02.464Z,44.30
2019-03-22T10:33:35.286Z,41.50
2019-03-22T10:36:08.295Z,39.50
2019-03-22T10:38:41.257Z,40.20
2019-03-22T10:41:14.687Z,39.40
2019-03-22T10:43:47.733Z,40.40
2019-03-22T10:46:20.804Z,43.20
2019-03-22T10:48:53.832Z,41.30
2019-03-22T10:51:26.750Z,44.00
2019-03-22T10:53:59.965Z,40.00
2019-03-22T10:56:33.894Z,42.60
2019-03-22T10:59:06.728Z,38.30
2019-03-22T11:01:48.541Z,39.50
2019-03-22T11:04:15.168Z,38.60
2019-03-22T11:06:48.244Z,39.60
2019-03-22T11:09:21.152Z,36.80
2019-03-22T11:11:54.104Z,37.60
2019-03-22T11:14:27.005Z,38.80
2019-03-22T11:17:00.164Z,36.80
2019-03-22T11:19:33.004Z,37.50
2019-03-22T11:22:05.908Z,36.00
2019-03-22T11:24:39.305Z,36.40
2019-03-22T11:27:13.751Z,36.60
2019-03-22T11:29:47.184Z,36.50
2019-03-22T11:32:20.109Z,37.00
2019-03-22T11:34:55.046Z,37.10
2019-03-22T11:37:27.924Z,37.40
2019-03-22T11:40:00.885Z,36.80
2019-03-22T11:42:34.785Z,35.90
2019-03-22T11:45:07.714Z,35.90
2019-03-22T11:47:40.592Z,35.50
2019-03-22T11:50:13.586Z,36.90
2019-03-22T11:52:46.684Z,39.70
2019-03-22T11:55:19.725Z,39.10
2019-03-22T11:57:52.604Z,37.80
2019-03-22T12:00:25.752Z,36.60
2019-03-22T12:02:58.667Z,37.60
2019-03-22T12:05:40.036Z,35.60
2019-03-22T12:08:06.092Z,39.60
2019-03-22T12:10:38.986Z,40.30
2019-03-22T12:13:11.844Z,37.30
2019-03-22T12:15:44.624Z,36.40
2019-03-22T12:18:18.573Z,38.70
2019-03-22T12:20:51.804Z,36.10
2019-03-22T12:23:24.784Z,37.50
2019-03-22T12:25:57.905Z,37.70
2019-03-22T12:28:30.986Z,36.10
2019-03-22T12:31:03.792Z,37.90
2019-03-22T12:33:36.607Z,39.30
2019-03-22T12:36:09.445Z,36.70
2019-03-22T12:38:42.401Z,39.00
2019-03-22T12:41:15.812Z,36.80
2019-03-22T12:43:48.845Z,38.40
2019-03-22T12:46:21.752Z,36.40
2019-03-22T12:48:54.812Z,36.00
2019-03-22T12:51:27.652Z,36.00
2019-03-22T12:54:00.489Z,36.10
2019-03-22T12:56:33.547Z,35.80
2019-03-22T12:59:06.613Z,36.10
2019-03-22T13:01:39.485Z,38.70
2019-03-22T13:04:12.584Z,38.40
2019-03-22T13:06:46.165Z,40.50
2019-03-22T13:09:19.064Z,41.20
2019-03-22T13:11:52.304Z,39.60
2019-03-22T13:14:25.213Z,38.50
2019-03-22T13:16:58.052Z,37.90
2019-03-22T13:19:31.124Z,40.70
2019-03-22T13:22:03.983Z,35.70
2019-03-22T13:24:37.164Z,40.10
2019-03-22T13:27:11.445Z,36.10
2019-03-22T13:29:44.545Z,36.70
2019-03-22T13:32:17.465Z,38.50
2019-03-22T13:34:50.528Z,35.70
2019-03-22T13:37:23.624Z,34.40
2019-03-22T13:39:56.484Z,34.90
2019-03-22T13:42:29.570Z,35.10
2019-03-22T13:45:02.645Z,36.10
2019-03-22T13:47:35.444Z,32.90
2019-03-22T13:50:08.352Z,34.10
2019-03-22T13:52:41.293Z,38.10
2019-03-22T13:55:14.305Z,35.50
2019-03-22T13:57:47.166Z,34.90
2019-03-22T14:00:20.671Z,36.40
2019-03-22T14:03:02.660Z,34.60
2019-03-22T14:05:28.084Z,33.40
2019-03-22T14:08:01.284Z,32.60
2019-03-22T14:10:34.523Z,35.60
2019-03-22T14:13:07.805Z,37.30
2019-03-22T14:15:40.963Z,36.80
2019-03-22T14:18:13.904Z,37.30
2019-03-22T14:20:46.763Z,37.40
2019-03-22T14:23:20.264Z,35.60
2019-03-22T14:25:53.163Z,35.40
2019-03-22T14:28:26.104Z,35.60
2019-03-22T14:30:59.212Z,38.90
2019-03-22T14:33:32.133Z,40.20
2019-03-22T14:36:05.163Z,40.90
2019-03-22T14:38:38.105Z,39.50
2019-03-22T14:41:11.046Z,39.50
2019-03-22T14:43:44.004Z,39.10
2019-03-22T14:46:16.825Z,36.80
2019-03-22T14:48:49.866Z,37.90
2019-03-22T14:51:22.872Z,37.60
2019-03-22T14:53:55.965Z,40.30
2019-03-22T14:56:29.725Z,39.90
2019-03-22T14:59:03.184Z,37.30
2019-03-22T15:01:36.548Z,36.30
2019-03-22T15:04:10.314Z,36.10
2019-03-22T15:06:43.765Z,41.30
2019-03-22T15:09:19.463Z,41.20
2019-03-22T15:11:52.612Z,44.20
2019-03-22T15:14:30.065Z,44.30
2019-03-22T15:17:09.455Z,45.10
2019-03-22T15:20:00.148Z,45.90
2019-03-22T15:22:52.844Z,40.80
2019-03-22T15:25:33.572Z,43.90
2019-03-22T15:28:22.727Z,45.30
2019-03-22T15:31:09.286Z,45.50
2019-03-22T15:33:47.042Z,46.60
2019-03-22T15:36:28.973Z,47.40
2019-03-22T15:39:19.898Z,47.70
2019-03-22T15:41:53.212Z,49.10
2019-03-22T15:44:26.104Z,50.60
2019-03-22T15:47:02.763Z,51.20
2019-03-22T15:49:35.585Z,50.20
2019-03-22T15:52:08.425Z,50.60
2019-03-22T15:54:41.528Z,52.10
2019-03-22T15:57:15.464Z,52.40
2019-03-22T15:59:48.392Z,53.40
2019-03-22T16:02:21.404Z,53.50
2019-03-22T16:04:54.324Z,53.50
2019-03-22T16:07:27.200Z,49.60
2019-03-22T16:10:00.405Z,50.70
2019-03-22T16:12:33.373Z,51.00
2019-03-22T16:15:06.264Z,50.10
2019-03-22T16:17:39.745Z,42.60
2019-03-22T16:20:13.072Z,48.90
2019-03-22T16:22:46.185Z,48.20
2019-03-22T16:25:19.665Z,47.90
2019-03-22T16:27:52.583Z,47.50
2019-03-22T16:30:25.548Z,48.30
2019-03-22T16:32:58.604Z,50.20
2019-03-22T16:35:32.345Z,50.10
2019-03-22T16:38:05.484Z,50.70
2019-03-22T16:40:38.588Z,52.20
2019-03-22T16:43:11.563Z,52.20
2019-03-22T16:45:44.744Z,54.00
2019-03-22T16:48:44.787Z,53.30
2019-03-22T16:51:19.314Z,53.00
2019-03-22T16:53:52.605Z,53.30
2019-03-22T16:56:25.885Z,52.70
2019-03-22T16:58:58.965Z,52.60
2019-03-22T17:01:32.325Z,51.80
2019-03-22T17:04:08.488Z,51.20
2019-03-22T17:06:44.565Z,51.30
2019-03-22T17:09:17.564Z,50.80
2019-03-22T17:11:50.445Z,51.60
2019-03-22T17:14:23.364Z,51.20
2019-03-22T17:16:56.685Z,52.70
2019-03-22T17:19:29.604Z,52.50
2019-03-22T17:22:03.544Z,52.40
2019-03-22T17:24:37.085Z,52.60
2019-03-22T17:27:10.213Z,53.20
2019-03-22T17:29:43.585Z,55.00
2019-03-22T17:32:16.525Z,55.10
2019-03-22T17:34:50.365Z,56.20
2019-03-22T17:37:23.546Z,56.50
2019-03-22T17:39:56.885Z,57.20
2019-03-22T17:42:29.724Z,57.20
2019-03-22T17:45:02.437Z,55.90
2019-03-22T17:47:35.653Z,56.30
2019-03-22T17:50:10.966Z,57.20
2019-03-22T17:52:43.844Z,56.20
2019-03-22T17:55:16.728Z,57.10
2019-03-22T17:57:49.826Z,57.90
2019-03-22T18:00:28.448Z,56.80
2019-03-22T18:03:01.407Z,56.40
2019-03-22T18:05:34.368Z,57.00
2019-03-22T18:08:07.935Z,57.20
2019-03-22T18:10:40.927Z,57.60
2019-03-22T18:13:14.004Z,57.80
2019-03-22T18:15:46.865Z,57.60
2019-03-22T18:18:20.321Z,57.50
2019-03-22T18:20:53.485Z,58.60
2019-03-22T18:23:35.644Z,57.40
2019-03-22T18:26:04.625Z,56.80
2019-03-22T18:28:39.444Z,56.80
2019-03-22T18:31:14.685Z,58.80
2019-03-22T18:33:47.945Z,58.20
2019-03-22T18:36:21.205Z,58.80
2019-03-22T18:38:56.845Z,59.20
2019-03-22T18:41:29.966Z,58.80
2019-03-22T18:44:03.296Z,59.80
2019-03-22T18:46:36.494Z,60.60
2019-03-22T18:49:09.885Z,59.50
2019-03-22T18:51:43.266Z,59.20
2019-03-22T18:54:16.766Z,60.70
2019-03-22T18:56:50.265Z,61.10
2019-03-22T18:59:24.405Z,61.60
2019-03-22T19:01:58.105Z,60.80
2019-03-22T19:04:31.224Z,61.80
2019-03-22T19:07:04.068Z,61.70
2019-03-22T19:09:37.273Z,60.70
2019-03-22T19:12:10.017Z,59.00
2019-03-22T19:14:42.907Z,59.60
2019-03-22T19:17:15.804Z,59.20
2019-03-22T19:19:48.625Z,59.30
2019-03-22T19:22:21.847Z,59.00
2019-03-22T19:24:54.950Z,59.20
2019-03-22T19:27:28.810Z,59.00
2019-03-22T19:30:01.760Z,59.80
2019-03-22T19:32:34.827Z,60.50
2019-03-22T19:35:08.131Z,59.90
2019-03-22T19:37:40.887Z,60.90
2019-03-22T19:40:13.927Z,60.70
2019-03-22T19:42:46.975Z,60.70
2019-03-22T19:45:20.495Z,61.60
2019-03-22T19:47:53.247Z,62.40
2019-03-22T19:50:26.088Z,62.70
2019-03-22T19:52:59.127Z,62.40
2019-03-22T19:55:32.070Z,60.60
2019-03-22T19:58:04.927Z,60.50
2019-03-22T20:00:37.907Z,61.40
2019-03-22T20:03:10.805Z,61.50
2019-03-22T20:05:44.066Z,62.90
2019-03-22T20:08:17.245Z,61.60
2019-03-22T20:10:50.145Z,60.30
2019-03-22T20:13:23.124Z,59.60
2019-03-22T20:15:55.945Z,59.90
2019-03-22T20:18:29.272Z,59.80
2019-03-22T20:21:02.165Z,61.30
2019-03-22T20:23:35.005Z,60.90
2019-03-22T20:26:07.885Z,60.80
2019-03-22T20:28:40.808Z,61.00
2019-03-22T20:31:13.665Z,61.90
2019-03-22T20:33:46.565Z,62.10
2019-03-22T20:36:19.689Z,61.90
2019-03-22T20:38:54.645Z,63.10
2019-03-22T20:41:28.240Z,62.60
2019-03-22T20:44:01.705Z,63.40
2019-03-22T20:46:34.653Z,64.20
2019-03-22T20:49:07.665Z,63.60
2019-03-22T20:51:40.606Z,64.80
2019-03-22T20:54:14.045Z,65.50
2019-03-22T20:56:48.864Z,64.30
2019-03-22T20:59:21.926Z,63.40
2019-03-22T21:01:55.044Z,63.10
2019-03-22T21:04:28.045Z,63.90
2019-03-22T21:07:01.331Z,65.60
2019-03-22T21:09:34.187Z,62.80
2019-03-22T21:12:07.484Z,62.10
2019-03-22T21:14:40.591Z,62.80
2019-03-22T21:17:13.604Z,62.00
2019-03-22T21:19:46.873Z,62.60
2019-03-22T21:22:19.777Z,63.10
2019-03-22T21:24:52.625Z,63.30
2019-03-22T21:27:26.184Z,62.60
2019-03-22T21:29:59.065Z,62.80
2019-03-22T21:32:32.385Z,61.70
2019-03-22T21:35:05.746Z,61.80
2019-03-22T21:37:39.284Z,63.30
2019-03-22T21:40:12.185Z,64.10
2019-03-22T21:42:45.344Z,64.90
2019-03-22T21:45:18.205Z,65.40
2019-03-22T21:47:51.524Z,67.30
2019-03-22T21:50:24.448Z,67.50
2019-03-22T21:52:57.473Z,67.60
2019-03-22T21:55:30.405Z,66.50
2019-03-22T21:58:03.364Z,66.10
2019-03-22T22:00:39.385Z,64.00
2019-03-22T22:03:13.204Z,63.90
2019-03-22T22:05:48.042Z,63.80
2019-03-22T22:08:20.646Z,64.70
2019-03-22T22:10:59.629Z,66.50
2019-03-22T22:13:28.407Z,66.60
2019-03-22T22:16:01.183Z,66.70
2019-03-22T22:18:34.145Z,67.80
2019-03-22T22:21:07.064Z,68.00
2019-03-22T22:23:40.235Z,68.00
2019-03-22T22:26:13.684Z,68.20
2019-03-22T22:28:46.765Z,67.50
2019-03-22T22:31:20.064Z,67.20
2019-03-22T22:33:52.984Z,66.90
2019-03-22T22:36:26.265Z,66.20
2019-03-22T22:38:59.844Z,67.50
2019-03-22T22:41:33.265Z,66.60
2019-03-22T22:44:06.604Z,66.70
2019-03-22T22:46:39.524Z,67.90
2019-03-22T22:49:12.505Z,68.20
2019-03-22T22:51:45.964Z,68.60
2019-03-22T22:54:19.284Z,67.60
2019-03-22T22:56:52.125Z,68.00
2019-03-22T22:59:25.373Z,68.90
2019-03-22T23:01:58.185Z,70.10
2019-03-22T23:04:32.217Z,69.70
2019-03-22T23:07:05.884Z,67.30
2019-03-22T23:09:38.704Z,66.00
2019-03-22T23:12:11.784Z,67.20
2019-03-22T23:14:44.765Z,67.80
2019-03-22T23:17:17.685Z,67.30
2019-03-22T23:19:50.524Z,67.90
2019-03-22T23:22:24.024Z,69.70
2019-03-22T23:24:57.365Z,70.20
2019-03-22T23:27:32.264Z,71.80
2019-03-22T23:30:05.445Z,71.30
2019-03-22T23:32:38.884Z,70.50
2019-03-22T23:35:11.873Z,69.30
2019-03-22T23:37:45.245Z,69.10
2019-03-22T23:40:18.225Z,68.40
2019-03-22T23:42:51.164Z,68.40
2019-03-22T23:45:24.302Z,70.00
2019-03-22T23:47:57.146Z,69.40
2019-03-22T23:50:30.064Z,69.00
2019-03-22T23:53:02.886Z,68.80
2019-03-22T23:55:36.045Z,69.60
2019-03-22T23:58:09.044Z,69.50
